Patrick Air Force Base
KCOF : now visible

Airfield :











YOU CAN JOIN US ON...

 
LOGIN :

Register | Disclaimer

   EN    FR    IT 

 









Legend :    VFR   Marginal VFR   IFR   Intensive IFR   Very Intensive IFR
Visi :
Ceiling :
>= 8 km
>= 3000ft
5 to 8 km
1000 to 3000 ft
1500m to 5 km
500 to 1000 ft
800 to 1500m
200 to 500 ft
< 800m
< 200 ft
Symbols :   Thunderstorms  Fog  Heavy snow  Heavy precipitations  Wind > 20 kt






- Airport Elevation : 8 ft


KCOF - Patrick Air Force Base

CURRENT METAR :
  • 232256Z AUTO 10012KT 10SM CLR 27/19 A2998 RMK AO2 SLP157 T02650186 $

EXPIRED METARs :
  • 232156Z AUTO 08010KT 10SM FEW120 27/19 A2997 RMK AO2 SLP153 T02680191 $
  • 232056Z AUTO 09012KT 10SM CLR 27/20 A2997 RMK AO2 SLP153 T02680196 56012 $

TAF TAF KCOF
Valid from the 23 at 18:00 until the 25 at 00:00 UTC


231800Z 2318/2424 10012G18KT 9000 -SHRA BKN020 BKN120 QNH2996INS
BECMG 2400/2401 08008KT 9999 NSW FEW020 SCT120 SCT200 QNH2994INS TX27/2318Z TN25/2410Z
KZMA FIR / North America



MET'MAP, your aeronautical weather chart ! - Copyright ORBIFLY December 2007 - Disclaimer

ORBIFLY MET'MAP TEAM :

Programming & Development : Alexandra Zaïnal
Concept & original design : Baudouin d'Aumeries
Assistance for programming : Marc-Olivier Méhu
Technical & hardware support : Manuel Goepfert

Contact : metmap@orbifly.com




SOURCES & CREDITS :

   NOAA       Earth
Advisory